»·PEaware :: N9273T KSNA-KSBA

N9273T :: KSNA-KSBA

FLIGHT INFORMATION

Flight Status: Arrived
Operator: Privately registered:
United States
More flights under this callsign
Pilot: Jim L. (28297)
Aircraft: CESSNA 210 CENTURION
(C210)
More flights by this aircraft type
Origin: KSNA John Wayne-Orange Co
United States
Destination: KSBA Santa Barbara Mun
United States
More flights between these airports :: More routes between these airports
Route: +SLI V23 LAX V299 VTU VTU282R KWANG
File this flight plan on PilotEdge
Remarks: TEC route CSTP21
Altitude:
(Current/Filed)
6,000ft
Speed:
(Current/Filed)
140kts
Departed: 05-Aug-20 05:49 PM
Arrived: 05-Aug-20 06:51 PM
Distance/Time
Traveled:
108nm/1:02
Distance/Time
To Go:
Arrived

Flight Plot

Page will automatically refresh every two minutes.


Map Options




Map Legend


Flown Route
Filed Route
Departure Airport
Arrival Airport
Navaid (VOR, NDB)
Fix

Horizontal Profiles

Position Reports

Time Latitude Longitude Heading Altitude Ground
Speed
05-Aug-20 17:19 33.673571 -117.872562 297 60ft 0kts
05-Aug-20 17:19 33.673571 -117.872562 297 60ft 0kts
05-Aug-20 17:20 33.673571 -117.872562 297 60ft 0kts
05-Aug-20 17:21 33.673571 -117.872562 297 60ft 0kts
05-Aug-20 17:22 33.673571 -117.872562 297 60ft 0kts
05-Aug-20 17:23 33.673571 -117.872562 297 60ft 0kts
05-Aug-20 17:24 33.673571 -117.872562 297 60ft 0kts
05-Aug-20 17:33 33.673571 -117.872562 297 60ft 0kts
05-Aug-20 17:34 33.673571 -117.872562 297 60ft 0kts
05-Aug-20 17:35 33.673571 -117.872562 297 60ft 0kts
05-Aug-20 17:36 33.673571 -117.872562 297 60ft 0kts
05-Aug-20 17:37 33.673571 -117.872562 297 60ft 0kts
05-Aug-20 17:38 33.673571 -117.872562 297 60ft 0kts
05-Aug-20 17:39 33.673571 -117.872562 297 60ft 0kts
05-Aug-20 17:40 33.673571 -117.872562 297 60ft 0kts
05-Aug-20 17:41 33.673571 -117.872562 297 60ft 0kts
05-Aug-20 17:42 33.673571 -117.872562 297 60ft 0kts
05-Aug-20 17:43 33.673571 -117.872562 297 60ft 0kts
05-Aug-20 17:44 33.673868 -117.872187 53 60ft 12kts
05-Aug-20 17:45 33.677368 -117.869259 29 60ft 25kts
05-Aug-20 17:46 33.681218 -117.866490 114 60ft 0kts
05-Aug-20 17:47 33.680132 -117.865979 206 60ft 30kts
05-Aug-20 17:48 33.660588 -117.881490 233 818ft 99kts
05-Aug-20 17:49 33.646587 -117.905732 231 2071ft 87kts
05-Aug-20 17:50 33.629871 -117.931715 231 2958ft 104kts
05-Aug-20 17:51 33.611140 -117.959429 231 3872ft 109kts
05-Aug-20 17:52 33.591774 -117.986828 231 4857ft 105kts
05-Aug-20 17:53 33.588095 -118.014382 330 5852ft 107kts
05-Aug-20 17:54 33.623772 -118.022386 345 6005ft 147kts
05-Aug-20 17:55 33.665047 -118.030655 344 6000ft 151kts
05-Aug-20 17:56 33.706658 -118.039197 344 5999ft 152kts
05-Aug-20 17:57 33.748499 -118.047767 344 6000ft 152kts
05-Aug-20 17:58 33.785637 -118.065468 294 6002ft 141kts
05-Aug-20 17:59 33.797448 -118.110438 285 5999ft 141kts
05-Aug-20 18:00 33.808888 -118.155839 285 5999ft 142kts
05-Aug-20 18:01 33.820441 -118.201351 285 6000ft 142kts
05-Aug-20 18:02 33.831916 -118.246760 285 5998ft 141kts
05-Aug-20 18:03 33.843454 -118.292302 285 5998ft 142kts
05-Aug-20 18:04 33.854923 -118.337709 285 5998ft 141kts
05-Aug-20 18:05 33.879228 -118.374288 313 5999ft 144kts
05-Aug-20 18:06 33.909166 -118.406738 314 5999ft 145kts
05-Aug-20 18:07 33.936141 -118.441777 290 6000ft 141kts
05-Aug-20 18:08 33.950203 -118.486039 289 5997ft 141kts
05-Aug-20 18:09 33.964257 -118.530543 289 5997ft 141kts
05-Aug-20 18:10 33.978375 -118.574871 289 5998ft 141kts
05-Aug-20 18:11 33.992513 -118.619173 289 5997ft 141kts
05-Aug-20 18:12 34.006560 -118.663532 288 6000ft 141kts
05-Aug-20 18:13 34.020938 -118.708720 289 6018ft 145kts
05-Aug-20 18:14 34.035415 -118.754360 289 6000ft 145kts
05-Aug-20 18:15 34.048495 -118.800206 285 5999ft 144kts
05-Aug-20 18:16 34.060670 -118.846613 286 5994ft 144kts
05-Aug-20 18:17 34.073003 -118.892797 286 5987ft 144kts
05-Aug-20 18:18 34.085337 -118.939157 286 6016ft 144kts
05-Aug-20 18:19 34.097740 -118.985662 286 6018ft 146kts
05-Aug-20 18:20 34.110198 -119.032516 286 6027ft 146kts
05-Aug-20 18:21 34.126439 -119.077489 295 6027ft 146kts
05-Aug-20 18:22 34.144917 -119.121541 295 6026ft 147kts
05-Aug-20 18:23 34.163519 -119.165926 295 6027ft 146kts
05-Aug-20 18:24 34.181881 -119.209764 295 6027ft 146kts
05-Aug-20 18:25 34.200632 -119.254482 295 5614ft 152kts
05-Aug-20 18:26 34.219709 -119.299917 296 4809ft 150kts
05-Aug-20 18:27 34.238360 -119.344498 296 4050ft 147kts
05-Aug-20 18:28 34.256614 -119.388655 297 3970ft 144kts
05-Aug-20 18:29 34.274429 -119.431305 297 3999ft 141kts
05-Aug-20 18:30 34.291989 -119.473696 297 3999ft 141kts
05-Aug-20 18:31 34.309568 -119.515931 296 3997ft 140kts
05-Aug-20 18:32 34.311334 -119.563471 272 3998ft 143kts
05-Aug-20 18:33 34.310385 -119.611612 274 3997ft 142kts
05-Aug-20 18:34 34.310710 -119.659877 275 4001ft 142kts
05-Aug-20 18:35 34.311991 -119.707993 276 4000ft 142kts
05-Aug-20 18:36 34.313551 -119.755933 276 4002ft 141kts
05-Aug-20 18:37 34.315151 -119.803651 276 4001ft 142kts
05-Aug-20 18:38 34.316695 -119.851639 276 4000ft 142kts
05-Aug-20 18:39 34.318170 -119.899461 276 4000ft 142kts
05-Aug-20 18:40 34.321425 -119.946668 296 3995ft 139kts
05-Aug-20 18:41 34.341799 -119.989107 303 3115ft 145kts
05-Aug-20 18:42 34.363233 -120.030435 303 2214ft 147kts
05-Aug-20 18:43 34.388011 -120.062996 352 1993ft 128kts
05-Aug-20 18:44 34.416667 -120.039249 48 1997ft 134kts
05-Aug-20 18:45 34.424663 -119.994855 84 1999ft 137kts
05-Aug-20 18:46 34.425339 -119.955157 85 1917ft 116kts
05-Aug-20 18:47 34.425660 -119.916451 84 1012ft 96kts
05-Aug-20 18:48 34.426972 -119.889977 90 630ft 79kts
05-Aug-20 18:49 34.427411 -119.862877 92 183ft 82kts
05-Aug-20 18:50 34.427682 -119.844349 88 17ft 31kts
05-Aug-20 18:51 34.428582 -119.841985 345 17ft 0kts
05-Aug-20 18:52 34.430170 -119.841304 68 17ft 15kts
05-Aug-20 18:53 34.432726 -119.835603 332 17ft 8kts

Navigation Log

Ident Type
Flight plan parsing failed, navigation log unavailable